Time;durP1;ratioP1;P1;durP2;ratioP2;P2;SDS_P1;SDS_P2;PMS_P1;PMS_P2;Temp;Humidity;BMP_temperature;BMP_pressure;BME280_temperature;BME280_humidity;BME280_pressure;Samples;Min_cycle;Max_cycle;Signal;HPM_P1;HPM_P2
2021/12/01 00:01:14;;;;;;;10.75;3.38;;;;;;;;;;5007715;28;20030;-73
2021/12/01 00:03:41;;;;;;;8.68;3.58;;;;;;;;;;4991167;28;20041;-74
2021/12/01 00:06:07;;;;;;;12.52;5.78;;;;;;;;;;4998068;28;20069;-71
2021/12/01 00:08:34;;;;;;;17.02;9.43;;;;;;;;;;4999107;28;20098;-72
2021/12/01 00:11:00;;;;;;;16.20;11.05;;;;;;;;;;4993341;28;20479;-70
2021/12/01 00:13:28;;;;;;;19.73;12.55;;;;;;;;;;4990753;28;20017;-73
2021/12/01 00:15:55;;;;;;;23.67;14.77;;;;;;;;;;4995443;28;20034;-72
2021/12/01 00:18:21;;;;;;;27.92;17.20;;;;;;;;;;4997624;28;20069;-74
2021/12/01 00:20:48;;;;;;;28.85;18.65;;;;;;;;;;4993990;28;20506;-72
2021/12/01 00:23:14;;;;;;;30.52;19.50;;;;;;;;;;4989765;28;20430;-72
2021/12/01 00:25:42;;;;;;;33.45;20.30;;;;;;;;;;4995003;28;20030;-72
2021/12/01 00:28:09;;;;;;;35.10;20.15;;;;;;;;;;4996368;28;20050;-72
2021/12/01 00:30:35;;;;;;;31.65;20.80;;;;;;;;;;4994012;28;20030;-71
2021/12/01 00:33:01;;;;;;;32.33;20.13;;;;;;;;;;4994412;28;20050;-72
2021/12/01 00:35:27;;;;;;;30.08;19.15;;;;;;;;;;5004956;28;20030;-71
2021/12/01 00:37:54;;;;;;;59.72;22.52;;;;;;;;;;4992926;28;20065;-72
2021/12/01 00:40:20;;;;;;;32.05;19.70;;;;;;;;;;5010855;28;20511;-71
2021/12/01 00:42:46;;;;;;;26.23;18.25;;;;;;;;;;4992958;28;20028;-72
2021/12/01 00:45:17;;;;;;;29.75;19.02;;;;;;;;;;4992887;28;20053;-71
2021/12/01 00:47:45;;;;;;;30.63;18.90;;;;;;;;;;4990115;28;20146;-72
2021/12/01 00:50:13;;;;;;;31.30;19.00;;;;;;;;;;4998189;28;20293;-73
2021/12/01 00:52:39;;;;;;;31.92;18.42;;;;;;;;;;4996683;28;20099;-73
2021/12/01 00:55:06;;;;;;;29.23;18.65;;;;;;;;;;4995239;28;20069;-73
2021/12/01 00:57:32;;;;;;;34.17;21.10;;;;;;;;;;4990737;28;20043;-73
2021/12/01 00:59:58;;;;;;;28.95;18.58;;;;;;;;;;4994715;28;20030;-73
2021/12/01 01:02:24;;;;;;;28.42;18.92;;;;;;;;;;4980154;28;20038;-73
2021/12/01 01:04:50;;;;;;;26.17;16.77;;;;;;;;;;4994762;28;20030;-73
2021/12/01 01:07:16;;;;;;;25.10;15.10;;;;;;;;;;5006641;28;20426;-73
2021/12/01 01:09:43;;;;;;;25.27;13.10;;;;;;;;;;5009981;28;20415;-72
2021/12/01 01:17:41;;;;;;;18.90;11.30;;;;;;;;;;4995456;28;20056;-72
2021/12/01 01:20:11;;;;;;;17.55;10.68;;;;;;;;;;4990819;28;20053;-72
2021/12/01 01:22:38;;;;;;;20.13;11.13;;;;;;;;;;4994974;28;20041;-72
2021/12/01 01:25:05;;;;;;;19.45;11.73;;;;;;;;;;5009476;28;20146;-74
2021/12/01 01:27:31;;;;;;;19.15;10.82;;;;;;;;;;4991450;28;20026;-71
2021/12/01 01:29:57;;;;;;;19.77;10.85;;;;;;;;;;4993238;28;20030;-71
2021/12/01 01:32:23;;;;;;;17.02;10.05;;;;;;;;;;4991598;28;20034;-72
2021/12/01 01:34:49;;;;;;;13.80;7.97;;;;;;;;;;4996307;28;20038;-72
2021/12/01 01:37:16;;;;;;;14.07;8.70;;;;;;;;;;4999638;28;20400;-71
2021/12/01 01:39:42;;;;;;;10.25;7.30;;;;;;;;;;4996532;28;20037;-71
2021/12/01 01:42:08;;;;;;;12.75;8.05;;;;;;;;;;4993275;28;20042;-71
2021/12/01 01:44:34;;;;;;;16.83;7.82;;;;;;;;;;4996382;28;20034;-73
2021/12/01 01:47:00;;;;;;;15.63;7.40;;;;;;;;;;4995983;28;20086;-74
2021/12/01 01:49:48;;;;;;;14.32;7.38;;;;;;;;;;4992299;28;20022;-70
2021/12/01 01:52:14;;;;;;;12.57;8.18;;;;;;;;;;4993214;28;20026;-72
2021/12/01 01:54:40;;;;;;;12.73;7.75;;;;;;;;;;5009801;28;20409;-73
2021/12/01 01:57:06;;;;;;;14.27;8.00;;;;;;;;;;4990413;28;20035;-71
2021/12/01 01:59:32;;;;;;;13.30;8.10;;;;;;;;;;4993071;28;20539;-71
2021/12/01 02:02:00;;;;;;;13.63;7.93;;;;;;;;;;4994693;28;20522;-71
2021/12/01 02:04:28;;;;;;;14.57;7.43;;;;;;;;;;4986970;28;20031;-73
2021/12/01 02:06:54;;;;;;;13.63;7.28;;;;;;;;;;4994825;28;20018;-72
2021/12/01 02:09:21;;;;;;;10.50;6.13;;;;;;;;;;4990565;28;20018;-73
2021/12/01 02:11:48;;;;;;;9.20;6.53;;;;;;;;;;5002840;28;20030;-74
2021/12/01 02:14:16;;;;;;;13.07;6.18;;;;;;;;;;4992845;28;20470;-72
2021/12/01 02:16:42;;;;;;;10.30;5.93;;;;;;;;;;4993368;28;20110;-72
2021/12/01 02:19:08;;;;;;;10.15;5.00;;;;;;;;;;4989498;28;20034;-73
2021/12/01 02:21:34;;;;;;;7.75;4.95;;;;;;;;;;4986327;28;20022;-72
2021/12/01 02:24:02;;;;;;;5.85;4.00;;;;;;;;;;4987931;28;20034;-73
2021/12/01 02:26:30;;;;;;;6.10;4.07;;;;;;;;;;4997531;28;20082;-72
2021/12/01 02:28:58;;;;;;;6.05;4.10;;;;;;;;;;4991319;28;20022;-73
2021/12/01 02:31:28;;;;;;;6.63;4.25;;;;;;;;;;5004015;28;20097;-73
2021/12/01 02:33:55;;;;;;;5.95;4.20;;;;;;;;;;4989445;28;20105;-74
2021/12/01 02:36:21;;;;;;;9.68;5.18;;;;;;;;;;5001316;28;20046;-71
2021/12/01 02:38:48;;;;;;;9.35;5.38;;;;;;;;;;4983954;28;20046;-71
2021/12/01 02:41:15;;;;;;;8.32;4.97;;;;;;;;;;4996363;28;20069;-73
2021/12/01 02:43:41;;;;;;;7.32;4.38;;;;;;;;;;4986263;28;20336;-73
2021/12/01 02:46:07;;;;;;;8.15;4.78;;;;;;;;;;4995251;28;20030;-74
2021/12/01 02:48:41;;;;;;;6.97;4.75;;;;;;;;;;4993107;28;20026;-75
2021/12/01 02:51:08;;;;;;;6.85;4.82;;;;;;;;;;5001415;28;20054;-75
2021/12/01 02:53:34;;;;;;;7.30;4.88;;;;;;;;;;4991595;28;20060;-75
2021/12/01 02:56:01;;;;;;;6.45;4.05;;;;;;;;;;4994876;28;20113;-73
2021/12/01 02:58:28;;;;;;;5.72;4.13;;;;;;;;;;4985718;28;20502;-75
2021/12/01 03:00:55;;;;;;;10.48;5.30;;;;;;;;;;4992016;28;20034;-74
2021/12/01 03:03:21;;;;;;;6.35;4.30;;;;;;;;;;4989350;28;20054;-72
2021/12/01 03:05:48;;;;;;;8.50;5.43;;;;;;;;;;4996534;28;20034;-73
2021/12/01 03:08:18;;;;;;;7.05;4.72;;;;;;;;;;4994281;28;20061;-74
2021/12/01 03:10:45;;;;;;;7.50;4.53;;;;;;;;;;4997761;28;20060;-74
2021/12/01 03:13:11;;;;;;;5.53;4.38;;;;;;;;;;4986805;28;20080;-73
2021/12/01 03:15:37;;;;;;;6.88;4.10;;;;;;;;;;4994132;28;20092;-73
2021/12/01 03:18:04;;;;;;;6.00;4.07;;;;;;;;;;4998839;28;20034;-72
2021/12/01 03:20:30;;;;;;;5.10;3.80;;;;;;;;;;4974130;28;20550;-71
2021/12/01 03:22:59;;;;;;;7.50;3.75;;;;;;;;;;4988692;28;20389;-69
2021/12/01 03:25:27;;;;;;;5.03;3.72;;;;;;;;;;5005048;28;20100;-73
2021/12/01 03:27:53;;;;;;;7.72;4.35;;;;;;;;;;4991355;28;20518;-73
2021/12/01 03:30:19;;;;;;;6.57;4.57;;;;;;;;;;4986613;28;20041;-72
2021/12/01 03:32:46;;;;;;;7.15;4.50;;;;;;;;;;4994924;28;20026;-72
2021/12/01 03:35:13;;;;;;;7.72;4.43;;;;;;;;;;5011383;28;20026;-71
2021/12/01 03:37:39;;;;;;;8.43;4.90;;;;;;;;;;4991822;28;20031;-73
2021/12/01 03:40:06;;;;;;;8.18;5.30;;;;;;;;;;4993821;28;20472;-72
2021/12/01 03:42:32;;;;;;;9.75;6.05;;;;;;;;;;4984159;28;20407;-72
2021/12/01 03:44:59;;;;;;;13.00;5.57;;;;;;;;;;4994213;28;20027;-71
2021/12/01 03:47:25;;;;;;;11.73;6.05;;;;;;;;;;4993103;28;20022;-73
2021/12/01 03:49:52;;;;;;;10.00;6.93;;;;;;;;;;4988080;28;20035;-72
2021/12/01 03:52:18;;;;;;;11.23;7.43;;;;;;;;;;4987971;28;20038;-72
2021/12/01 03:54:44;;;;;;;13.02;8.02;;;;;;;;;;4995971;28;20111;-73
2021/12/01 03:57:11;;;;;;;13.63;8.13;;;;;;;;;;4996027;28;20037;-70
2021/12/01 03:59:37;;;;;;;14.98;9.50;;;;;;;;;;4988789;28;20476;-72
2021/12/01 04:02:03;;;;;;;13.75;9.25;;;;;;;;;;4991138;28;20042;-74
2021/12/01 04:04:29;;;;;;;15.05;9.48;;;;;;;;;;4989925;28;20072;-73
2021/12/01 04:06:55;;;;;;;15.55;9.70;;;;;;;;;;4995707;28;20065;-72
2021/12/01 04:09:21;;;;;;;12.93;9.27;;;;;;;;;;5001487;28;20026;-72
2021/12/01 04:11:48;;;;;;;15.05;8.95;;;;;;;;;;4998184;28;20403;-73
2021/12/01 04:14:14;;;;;;;14.85;9.20;;;;;;;;;;4992900;28;20026;-74
2021/12/01 04:16:40;;;;;;;17.33;9.93;;;;;;;;;;4980109;28;20238;-73
2021/12/01 04:19:06;;;;;;;14.82;9.50;;;;;;;;;;4991616;28;20080;-73
2021/12/01 04:21:32;;;;;;;13.85;9.88;;;;;;;;;;5006539;28;20025;-73
2021/12/01 04:23:59;;;;;;;13.73;9.25;;;;;;;;;;4998087;28;20022;-72
2021/12/01 04:26:27;;;;;;;11.35;7.95;;;;;;;;;;4990875;28;20031;-74
2021/12/01 04:28:55;;;;;;;12.38;8.10;;;;;;;;;;4991229;28;20455;-72
2021/12/01 04:31:22;;;;;;;13.30;8.50;;;;;;;;;;4998367;28;20436;-71
2021/12/01 04:33:48;;;;;;;11.98;7.53;;;;;;;;;;4992277;28;20460;-72
2021/12/01 04:36:16;;;;;;;13.55;8.32;;;;;;;;;;4996182;28;20113;-73
2021/12/01 04:38:42;;;;;;;12.70;8.68;;;;;;;;;;4991335;28;20031;-74
2021/12/01 04:41:09;;;;;;;11.85;9.30;;;;;;;;;;5005575;28;20049;-72
2021/12/01 04:43:39;;;;;;;14.30;9.10;;;;;;;;;;4992913;28;20488;-73
2021/12/01 04:46:05;;;;;;;16.45;9.90;;;;;;;;;;4995713;28;20041;-72
2021/12/01 04:48:31;;;;;;;14.38;9.70;;;;;;;;;;4997343;28;20049;-74
2021/12/01 04:50:58;;;;;;;14.68;9.85;;;;;;;;;;5006603;28;20026;-71
2021/12/01 04:53:28;;;;;;;14.20;10.30;;;;;;;;;;4994935;28;20030;-73
2021/12/01 04:55:54;;;;;;;13.70;9.85;;;;;;;;;;5000436;28;20078;-71
2021/12/01 04:58:21;;;;;;;14.77;9.93;;;;;;;;;;4990259;28;20038;-73
2021/12/01 05:00:47;;;;;;;13.70;10.02;;;;;;;;;;4994814;28;20058;-72
2021/12/01 05:03:13;;;;;;;13.85;9.90;;;;;;;;;;4999588;28;20040;-73
2021/12/01 05:05:39;;;;;;;13.18;10.70;;;;;;;;;;5002666;28;20030;-76
2021/12/01 05:08:06;;;;;;;18.98;10.85;;;;;;;;;;4993576;28;20260;-74
2021/12/01 05:10:31;;;;;;;16.42;11.80;;;;;;;;;;4992830;28;20041;-74
2021/12/01 05:12:57;;;;;;;15.13;10.98;;;;;;;;;;5016618;28;20034;-73
2021/12/01 05:15:24;;;;;;;16.70;11.05;;;;;;;;;;4990610;28;20492;-74
2021/12/01 05:17:50;;;;;;;16.15;10.80;;;;;;;;;;4996324;28;20530;-73
2021/12/01 05:20:16;;;;;;;16.08;11.50;;;;;;;;;;4996097;28;20276;-74
2021/12/01 05:22:44;;;;;;;18.50;11.45;;;;;;;;;;4991592;28;20035;-71
2021/12/01 05:25:10;;;;;;;16.58;12.18;;;;;;;;;;4999718;28;20038;-72
2021/12/01 05:27:36;;;;;;;16.75;12.18;;;;;;;;;;4997348;28;20494;-73
2021/12/01 05:30:03;;;;;;;15.57;11.88;;;;;;;;;;4993717;28;20034;-72
2021/12/01 05:32:30;;;;;;;15.50;11.57;;;;;;;;;;4992345;28;20022;-72
2021/12/01 05:34:56;;;;;;;14.55;11.68;;;;;;;;;;4993436;28;20022;-71
2021/12/01 05:37:23;;;;;;;16.02;11.88;;;;;;;;;;4994174;28;20038;-73
2021/12/01 05:39:49;;;;;;;18.38;12.95;;;;;;;;;;4994995;28;20035;-72
2021/12/01 05:42:16;;;;;;;19.75;13.40;;;;;;;;;;4988858;28;20506;-74
2021/12/01 05:44:42;;;;;;;16.73;11.98;;;;;;;;;;4988103;28;20049;-71
2021/12/01 05:47:09;;;;;;;19.27;13.18;;;;;;;;;;5004247;28;20414;-75
2021/12/01 05:49:41;;;;;;;22.70;13.20;;;;;;;;;;5002287;28;20021;-72
2021/12/01 05:52:07;;;;;;;17.58;11.45;;;;;;;;;;4994827;28;20123;-73
2021/12/01 05:54:33;;;;;;;15.23;11.38;;;;;;;;;;4991016;28;20070;-71
2021/12/01 05:57:00;;;;;;;18.77;12.20;;;;;;;;;;5000968;28;20088;-71
2021/12/01 05:59:29;;;;;;;17.13;11.57;;;;;;;;;;4993600;28;20037;-73
2021/12/01 06:01:55;;;;;;;15.20;11.02;;;;;;;;;;5004030;28;20092;-71
2021/12/01 06:04:28;;;;;;;19.30;11.63;;;;;;;;;;4987734;28;20030;-74
2021/12/01 06:06:54;;;;;;;16.77;12.13;;;;;;;;;;4993628;28;20175;-75
2021/12/01 06:09:21;;;;;;;17.38;11.95;;;;;;;;;;4975808;28;20034;-77
2021/12/01 06:11:48;;;;;;;16.73;11.85;;;;;;;;;;5011307;28;20416;-79
2021/12/01 06:14:15;;;;;;;17.98;10.43;;;;;;;;;;4996607;28;20030;-77
2021/12/01 06:16:41;;;;;;;14.95;9.32;;;;;;;;;;5001785;28;20048;-74
2021/12/01 06:19:07;;;;;;;15.35;10.93;;;;;;;;;;4993832;28;20050;-73
2021/12/01 06:21:33;;;;;;;13.88;10.10;;;;;;;;;;4987718;28;20026;-74
2021/12/01 06:23:59;;;;;;;14.13;10.25;;;;;;;;;;4997720;28;20038;-74
2021/12/01 06:26:25;;;;;;;18.58;10.68;;;;;;;;;;4992586;28;20038;-75
2021/12/01 06:28:51;;;;;;;15.35;11.40;;;;;;;;;;4989857;28;20499;-73
2021/12/01 06:31:18;;;;;;;14.85;9.68;;;;;;;;;;4990593;28;20026;-75
2021/12/01 06:33:44;;;;;;;13.85;9.63;;;;;;;;;;5004130;28;20105;-73
2021/12/01 06:36:10;;;;;;;13.90;9.20;;;;;;;;;;4987122;28;20053;-74
2021/12/01 06:38:38;;;;;;;13.98;9.20;;;;;;;;;;4983067;28;20495;-74
2021/12/01 06:41:05;;;;;;;18.10;9.93;;;;;;;;;;4991660;28;20045;-74
2021/12/01 06:43:31;;;;;;;17.02;10.07;;;;;;;;;;4994178;28;20054;-74
2021/12/01 06:45:57;;;;;;;15.80;10.05;;;;;;;;;;4996978;28;20065;-77
2021/12/01 06:48:23;;;;;;;16.92;10.15;;;;;;;;;;4997124;28;20458;-76
2021/12/01 06:50:49;;;;;;;16.30;9.77;;;;;;;;;;4993260;28;20126;-76
2021/12/01 06:53:15;;;;;;;14.80;9.63;;;;;;;;;;4994265;28;20642;-76
2021/12/01 06:55:41;;;;;;;14.32;9.25;;;;;;;;;;4991774;28;20476;-74
2021/12/01 06:58:07;;;;;;;14.68;8.43;;;;;;;;;;4988648;28;20052;-74
2021/12/01 07:00:33;;;;;;;12.25;9.38;;;;;;;;;;5008007;28;20050;-75
2021/12/01 07:02:59;;;;;;;10.25;7.70;;;;;;;;;;4991462;28;20034;-75
2021/12/01 07:05:25;;;;;;;11.77;8.40;;;;;;;;;;4991108;28;20034;-73
2021/12/01 07:07:52;;;;;;;11.55;8.10;;;;;;;;;;4992318;28;20081;-74
2021/12/01 07:10:19;;;;;;;11.93;8.88;;;;;;;;;;4985471;28;20032;-73
2021/12/01 07:12:46;;;;;;;11.32;8.32;;;;;;;;;;4991609;28;20038;-73
2021/12/01 07:15:13;;;;;;;11.48;8.55;;;;;;;;;;4994568;28;20029;-74
2021/12/01 07:17:39;;;;;;;14.10;8.40;;;;;;;;;;4992379;28;20171;-74
2021/12/01 07:20:05;;;;;;;9.77;7.90;;;;;;;;;;4990642;28;20026;-76
2021/12/01 07:22:32;;;;;;;11.52;7.70;;;;;;;;;;4987132;28;20043;-75
2021/12/01 07:24:58;;;;;;;8.65;7.13;;;;;;;;;;4999145;28;20117;-73
2021/12/01 07:27:24;;;;;;;10.07;6.70;;;;;;;;;;4967906;28;20112;-74
2021/12/01 07:29:50;;;;;;;9.23;6.40;;;;;;;;;;4985888;28;20101;-73
2021/12/01 07:32:16;;;;;;;12.25;6.75;;;;;;;;;;4971090;28;20076;-73
2021/12/01 07:34:42;;;;;;;14.82;6.60;;;;;;;;;;4977510;28;20038;-75
2021/12/01 07:37:12;;;;;;;9.70;6.20;;;;;;;;;;4980977;28;20506;-74
2021/12/01 07:39:39;;;;;;;7.78;6.38;;;;;;;;;;4979918;28;20065;-74
2021/12/01 07:42:06;;;;;;;13.10;6.55;;;;;;;;;;4978569;28;20154;-78
2021/12/01 07:44:32;;;;;;;9.73;6.13;;;;;;;;;;4974044;28;20043;-76
2021/12/01 07:46:58;;;;;;;12.02;6.88;;;;;;;;;;4980723;28;20037;-74
2021/12/01 07:49:25;;;;;;;13.05;7.80;;;;;;;;;;4972191;28;20031;-75
2021/12/01 07:51:51;;;;;;;12.10;6.75;;;;;;;;;;4978025;28;20027;-75
2021/12/01 07:54:17;;;;;;;15.32;8.27;;;;;;;;;;4980114;28;20099;-76
2021/12/01 07:56:44;;;;;;;12.93;8.23;;;;;;;;;;4980281;28;20042;-72
2021/12/01 07:59:13;;;;;;;15.70;8.45;;;;;;;;;;4983942;28;20083;-75
2021/12/01 08:01:39;;;;;;;16.50;7.18;;;;;;;;;;4979227;28;20035;-73
2021/12/01 08:04:05;;;;;;;12.85;7.07;;;;;;;;;;4981476;28;20034;-75
2021/12/01 08:06:32;;;;;;;13.65;7.65;;;;;;;;;;5006507;28;20031;-74
2021/12/01 08:09:00;;;;;;;15.40;8.55;;;;;;;;;;4996775;28;20148;-76
2021/12/01 08:11:30;;;;;;;16.98;7.78;;;;;;;;;;5013230;28;20081;-75
2021/12/01 08:13:59;;;;;;;12.00;3.60;;;;;;;;;;4978551;28;20042;-74
2021/12/01 08:16:25;;;;;;;20.25;3.47;;;;;;;;;;4985182;28;20034;-76
2021/12/01 08:18:53;;;;;;;16.30;4.50;;;;;;;;;;4990553;28;20045;-80
2021/12/01 08:21:21;;;;;;;23.30;2.80;;;;;;;;;;5002123;28;20038;-77
2021/12/01 08:23:48;;;;;;;22.08;4.05;;;;;;;;;;5004900;28;20061;-77
2021/12/01 08:26:14;;;;;;;21.20;3.90;;;;;;;;;;4999739;28;20031;-77
2021/12/01 08:28:45;;;;;;;20.63;3.15;;;;;;;;;;4988376;28;20123;-77
2021/12/01 08:31:11;;;;;;;25.52;3.00;;;;;;;;;;4978366;28;20030;-78
2021/12/01 08:33:38;;;;;;;24.70;3.63;;;;;;;;;;4973923;28;20132;-78
2021/12/01 08:36:04;;;;;;;27.40;3.03;;;;;;;;;;4976714;28;20109;-79
2021/12/01 08:38:30;;;;;;;19.95;3.80;;;;;;;;;;4986309;28;20451;-75
2021/12/01 08:40:56;;;;;;;14.95;3.83;;;;;;;;;;4978029;28;20042;-77
2021/12/01 08:43:22;;;;;;;17.17;2.55;;;;;;;;;;4965486;28;20039;-75
2021/12/01 08:45:48;;;;;;;14.00;2.65;;;;;;;;;;4965659;28;20036;-76
2021/12/01 08:48:14;;;;;;;23.70;2.47;;;;;;;;;;4967967;28;20100;-75
2021/12/01 08:50:40;;;;;;;13.20;1.95;;;;;;;;;;4962413;28;20081;-77
2021/12/01 08:53:06;;;;;;;16.02;3.63;;;;;;;;;;4968668;28;20026;-75
2021/12/01 08:55:32;;;;;;;16.00;2.03;;;;;;;;;;4962790;28;20047;-74
2021/12/01 08:57:59;;;;;;;13.30;1.88;;;;;;;;;;4966507;28;20081;-76
2021/12/01 09:00:28;;;;;;;16.90;2.10;;;;;;;;;;4970540;28;20058;-77
2021/12/01 09:02:54;;;;;;;16.70;3.50;;;;;;;;;;4967518;28;20058;-74
2021/12/01 09:05:20;;;;;;;15.57;2.60;;;;;;;;;;4966340;28;20075;-74
2021/12/01 09:07:46;;;;;;;14.70;2.00;;;;;;;;;;4975665;28;20058;-75
2021/12/01 09:10:12;;;;;;;15.48;2.33;;;;;;;;;;4979435;28;20026;-75
2021/12/01 09:12:38;;;;;;;12.93;1.60;;;;;;;;;;4960546;28;20447;-75
2021/12/01 09:15:04;;;;;;;15.35;1.73;;;;;;;;;;4977003;28;20045;-74
2021/12/01 09:17:30;;;;;;;14.15;2.08;;;;;;;;;;4978256;28;20034;-75
2021/12/01 09:19:56;;;;;;;11.48;1.80;;;;;;;;;;4978084;28;20038;-76
2021/12/01 09:22:22;;;;;;;13.05;1.63;;;;;;;;;;4975917;28;20058;-75
2021/12/01 09:24:48;;;;;;;10.52;2.35;;;;;;;;;;4991438;28;20097;-75
2021/12/01 09:27:16;;;;;;;19.95;2.38;;;;;;;;;;4992995;28;20027;-76
2021/12/01 09:29:42;;;;;;;13.88;1.55;;;;;;;;;;4993269;28;20642;-75
2021/12/01 09:32:08;;;;;;;11.68;1.63;;;;;;;;;;4976303;28;20077;-74
2021/12/01 09:34:34;;;;;;;12.63;2.10;;;;;;;;;;4976415;28;20030;-76
2021/12/01 09:37:00;;;;;;;9.55;1.48;;;;;;;;;;4967287;28;20023;-74
2021/12/01 09:39:26;;;;;;;15.35;2.53;;;;;;;;;;4980165;28;20439;-74
2021/12/01 09:41:54;;;;;;;20.67;3.50;;;;;;;;;;4969697;28;20105;-75
2021/12/01 09:44:20;;;;;;;12.05;2.22;;;;;;;;;;4973638;28;20046;-73
2021/12/01 09:46:46;;;;;;;20.02;2.40;;;;;;;;;;4979696;28;20562;-76
2021/12/01 09:49:12;;;;;;;10.90;1.73;;;;;;;;;;4972142;28;20054;-76
2021/12/01 09:51:38;;;;;;;9.77;1.83;;;;;;;;;;4990733;28;20496;-74
2021/12/01 09:54:06;;;;;;;11.73;1.67;;;;;;;;;;5004883;28;20415;-75
2021/12/01 09:56:33;;;;;;;15.23;2.00;;;;;;;;;;4972252;28;20050;-75
2021/12/01 09:58:59;;;;;;;15.23;2.10;;;;;;;;;;4966942;28;20035;-77
2021/12/01 10:01:27;;;;;;;13.65;2.03;;;;;;;;;;4976658;28;20031;-74
2021/12/01 10:03:53;;;;;;;4.60;1.30;;;;;;;;;;4973157;28;20030;-74
2021/12/01 10:06:21;;;;;;;9.23;1.77;;;;;;;;;;4991068;28;20062;-75
2021/12/01 10:08:52;;;;;;;19.35;2.58;;;;;;;;;;4978452;28;20039;-75
2021/12/01 10:11:28;;;;;;;14.55;2.00;;;;;;;;;;4972117;28;20019;-75
2021/12/01 10:13:57;;;;;;;16.30;2.42;;;;;;;;;;5002033;28;20042;-76
2021/12/01 10:16:24;;;;;;;9.77;1.88;;;;;;;;;;4984625;28;20036;-78
2021/12/01 10:18:52;;;;;;;9.30;1.80;;;;;;;;;;4972596;28;20088;-77
2021/12/01 10:21:23;;;;;;;14.60;2.03;;;;;;;;;;4976078;28;20061;-77
2021/12/01 10:23:57;;;;;;;10.82;2.10;;;;;;;;;;4973913;28;20423;-76
2021/12/01 10:26:27;;;;;;;14.13;2.30;;;;;;;;;;4972821;28;20057;-77
2021/12/01 10:28:58;;;;;;;8.75;1.88;;;;;;;;;;4986068;28;20165;-77
2021/12/01 10:31:51;;;;;;;15.20;2.47;;;;;;;;;;4973924;28;20082;-76
2021/12/01 10:34:23;;;;;;;14.10;2.28;;;;;;;;;;4974776;28;20039;-75
2021/12/01 10:36:51;;;;;;;12.63;2.03;;;;;;;;;;4975404;28;20092;-74
2021/12/01 10:39:17;;;;;;;15.48;2.15;;;;;;;;;;4972420;28;20241;-76
2021/12/01 10:41:43;;;;;;;14.27;2.10;;;;;;;;;;4975385;28;20023;-76
2021/12/01 10:44:16;;;;;;;18.42;2.80;;;;;;;;;;4977197;28;20022;-75
2021/12/01 10:46:53;;;;;;;17.00;2.45;;;;;;;;;;4969540;28;20489;-76
2021/12/01 10:49:32;;;;;;;15.25;2.55;;;;;;;;;;4972257;28;20536;-74
2021/12/01 10:51:58;;;;;;;14.77;2.28;;;;;;;;;;4977190;28;20031;-75
2021/12/01 10:54:26;;;;;;;19.52;2.75;;;;;;;;;;4977319;28;20095;-74
2021/12/01 10:57:11;;;;;;;16.90;2.50;;;;;;;;;;4970501;28;20051;-76
2021/12/01 10:59:52;;;;;;;18.35;2.75;;;;;;;;;;4967533;28;20102;-75
2021/12/01 11:02:22;;;;;;;17.05;2.30;;;;;;;;;;4972814;28;20028;-73
2021/12/01 11:04:50;;;;;;;23.65;3.13;;;;;;;;;;4966160;28;20058;-74
2021/12/01 11:07:29;;;;;;;16.13;2.78;;;;;;;;;;4985444;28;20026;-75
2021/12/01 11:10:10;;;;;;;15.27;2.13;;;;;;;;;;4972198;28;20035;-77
2021/12/01 11:12:36;;;;;;;20.77;2.03;;;;;;;;;;4989691;28;20276;-75
2021/12/01 11:15:19;;;;;;;11.20;2.15;;;;;;;;;;4985836;28;20559;-74
2021/12/01 11:17:45;;;;;;;22.15;2.58;;;;;;;;;;4977899;28;20070;-75
2021/12/01 11:20:12;;;;;;;13.18;2.33;;;;;;;;;;4986286;28;20305;-76
2021/12/01 11:22:38;;;;;;;20.80;2.80;;;;;;;;;;4973309;28;20125;-74
2021/12/01 11:25:37;;;;;;;12.40;2.17;;;;;;;;;;4975955;28;20050;-74
2021/12/01 11:28:13;;;;;;;15.57;3.20;;;;;;;;;;4978286;28;20046;-75
2021/12/01 11:30:40;;;;;;;18.95;2.80;;;;;;;;;;4975975;28;20031;-74
2021/12/01 11:33:06;;;;;;;11.75;2.53;;;;;;;;;;4973789;28;20153;-74
2021/12/01 11:35:33;;;;;;;11.75;2.00;;;;;;;;;;4971078;28;20070;-77
2021/12/01 11:37:59;;;;;;;15.65;2.35;;;;;;;;;;4970053;28;20059;-75
2021/12/01 11:40:29;;;;;;;15.52;2.83;;;;;;;;;;4969729;28;20073;-76
2021/12/01 11:42:56;;;;;;;17.63;2.42;;;;;;;;;;4972148;28;20039;-77
2021/12/01 11:45:23;;;;;;;22.70;2.80;;;;;;;;;;4976201;28;20035;-74
2021/12/01 11:47:50;;;;;;;13.13;2.33;;;;;;;;;;4974919;28;20271;-76
2021/12/01 11:50:18;;;;;;;14.88;2.50;;;;;;;;;;4984839;28;20112;-78
2021/12/01 11:53:03;;;;;;;13.48;2.28;;;;;;;;;;4978740;28;20110;-77
2021/12/01 11:55:48;;;;;;;14.70;2.00;;;;;;;;;;4973201;28;20121;-75
2021/12/01 11:58:33;;;;;;;17.20;2.38;;;;;;;;;;4990761;28;20043;-75
2021/12/01 12:00:59;;;;;;;14.25;1.98;;;;;;;;;;4989240;28;20027;-74
2021/12/01 12:03:28;;;;;;;13.75;2.38;;;;;;;;;;4972871;28;20179;-77
2021/12/01 12:06:13;;;;;;;15.63;2.33;;;;;;;;;;4972775;28;20500;-78
2021/12/01 12:08:54;;;;;;;16.52;2.58;;;;;;;;;;4989715;28;20061;-75
2021/12/01 12:11:36;;;;;;;11.85;2.20;;;;;;;;;;4983529;28;20058;-74
2021/12/01 12:14:07;;;;;;;14.77;2.40;;;;;;;;;;4964930;28;20097;-74
2021/12/01 12:16:33;;;;;;;;;;;;;;;;;;4974355;28;20053;-75
2021/12/01 12:18:59;;;;;;;18.33;2.15;;;;;;;;;;4980975;28;19929;-75
2021/12/01 12:21:39;;;;;;;15.55;2.42;;;;;;;;;;4973932;28;20121;-76
2021/12/01 12:24:17;;;;;;;16.42;2.58;;;;;;;;;;4989230;28;20034;-75
2021/12/01 12:26:44;;;;;;;13.23;2.45;;;;;;;;;;4971837;28;20109;-76
2021/12/01 12:29:18;;;;;;;18.45;3.30;;;;;;;;;;4974738;28;20057;-73
2021/12/01 12:31:45;;;;;;;13.30;1.90;;;;;;;;;;4975165;28;20037;-77
2021/12/01 12:34:22;;;;;;;25.38;3.45;;;;;;;;;;4992589;28;20030;-75
2021/12/01 12:36:55;;;;;;;12.57;2.03;;;;;;;;;;4978551;28;20113;-76
2021/12/01 12:39:23;;;;;;;10.77;2.83;;;;;;;;;;4977021;28;20061;-75
2021/12/01 12:42:00;;;;;;;13.82;2.00;;;;;;;;;;4976193;28;20038;-75
2021/12/01 12:44:26;;;;;;;11.07;2.15;;;;;;;;;;4971872;28;20085;-77
2021/12/01 12:47:03;;;;;;;13.63;2.67;;;;;;;;;;4972452;28;20518;-74
2021/12/01 12:49:44;;;;;;;12.30;2.33;;;;;;;;;;4977174;28;20027;-75
2021/12/01 12:52:10;;;;;;;;;;;;;;;;;;5000210;28;20040;-76
2021/12/01 12:54:37;;;;;;;20.05;3.17;;;;;;;;;;4976223;28;19910;-76
2021/12/01 12:57:07;;;;;;;17.88;3.50;;;;;;;;;;4976227;28;20099;-77
2021/12/01 12:59:34;;;;;;;17.67;3.53;;;;;;;;;;4974850;28;20034;-76
2021/12/01 13:02:03;;;;;;;16.02;2.78;;;;;;;;;;4969919;28;20038;-74
2021/12/01 13:04:48;;;;;;;19.05;2.60;;;;;;;;;;4968840;28;20023;-76
2021/12/01 13:07:35;;;;;;;17.25;3.50;;;;;;;;;;4974492;28;20037;-75
2021/12/01 13:10:20;;;;;;;16.60;3.00;;;;;;;;;;4972133;28;20027;-73
2021/12/01 13:12:57;;;;;;;19.42;3.25;;;;;;;;;;4976555;28;20389;-77
2021/12/01 13:15:23;;;;;;;32.63;5.38;;;;;;;;;;4975664;28;20056;-75
2021/12/01 13:17:50;;;;;;;15.55;3.42;;;;;;;;;;4975712;28;20567;-76
2021/12/01 13:20:20;;;;;;;12.52;2.95;;;;;;;;;;4970090;28;20057;-74
2021/12/01 13:23:04;;;;;;;17.73;3.80;;;;;;;;;;4974367;28;20037;-73
2021/12/01 13:25:30;;;;;;;22.45;3.30;;;;;;;;;;4991504;28;20154;-75
2021/12/01 13:27:56;;;;;;;24.52;3.70;;;;;;;;;;4967537;28;20034;-74
2021/12/01 13:30:22;;;;;;;20.95;3.55;;;;;;;;;;4967110;28;20440;-75
2021/12/01 13:33:07;;;;;;;20.63;4.07;;;;;;;;;;4989315;28;20036;-74
2021/12/01 13:35:33;;;;;;;26.80;4.15;;;;;;;;;;4973915;28;20048;-73
2021/12/01 13:37:59;;;;;;;23.85;5.03;;;;;;;;;;4976036;28;20615;-74
2021/12/01 13:40:29;;;;;;;30.27;5.85;;;;;;;;;;4977954;28;20125;-75
2021/12/01 13:42:55;;;;;;;28.98;4.43;;;;;;;;;;4977058;28;20031;-75
2021/12/01 13:45:24;;;;;;;22.75;3.65;;;;;;;;;;4979034;28;20026;-76
2021/12/01 13:47:50;;;;;;;22.83;4.40;;;;;;;;;;4973974;28;20037;-75
2021/12/01 13:50:17;;;;;;;26.73;5.85;;;;;;;;;;4975477;28;20031;-76
2021/12/01 13:52:44;;;;;;;32.42;4.03;;;;;;;;;;4993803;28;20041;-75
2021/12/01 13:55:16;;;;;;;23.23;3.85;;;;;;;;;;4991234;28;20029;-74
2021/12/01 13:57:43;;;;;;;18.48;2.97;;;;;;;;;;4969750;28;20065;-73
2021/12/01 14:00:09;;;;;;;26.02;3.83;;;;;;;;;;4980988;28;20101;-75
2021/12/01 14:02:35;;;;;;;22.38;3.38;;;;;;;;;;4965631;28;20122;-75
2021/12/01 14:05:03;;;;;;;22.02;3.53;;;;;;;;;;4973420;28;20040;-74
2021/12/01 14:07:42;;;;;;;22.15;2.75;;;;;;;;;;4966958;28;20029;-76
2021/12/01 14:10:27;;;;;;;25.60;4.75;;;;;;;;;;4966445;28;20085;-77
2021/12/01 14:13:00;;;;;;;19.27;2.92;;;;;;;;;;4973042;28;20038;-75
2021/12/01 14:15:27;;;;;;;21.58;3.15;;;;;;;;;;4972227;28;20042;-75
2021/12/01 14:17:54;;;;;;;18.30;2.50;;;;;;;;;;4983319;28;20125;-73
2021/12/01 14:20:23;;;;;;;18.55;2.42;;;;;;;;;;4980235;28;20043;-75
2021/12/01 14:22:49;;;;;;;15.40;1.70;;;;;;;;;;4976899;28;20519;-73
2021/12/01 14:25:17;;;;;;;13.30;1.95;;;;;;;;;;4972276;28;20539;-76
2021/12/01 14:27:43;;;;;;;15.23;2.42;;;;;;;;;;4986362;28;20042;-74
2021/12/01 14:30:11;;;;;;;9.68;1.77;;;;;;;;;;4999722;28;20085;-76
2021/12/01 14:32:39;;;;;;;18.63;2.95;;;;;;;;;;4997491;28;20089;-76
2021/12/01 14:35:06;;;;;;;24.73;2.92;;;;;;;;;;4979062;28;20038;-76
2021/12/01 14:37:33;;;;;;;13.90;1.80;;;;;;;;;;4975460;28;20109;-73
2021/12/01 14:40:13;;;;;;;20.42;2.58;;;;;;;;;;4971154;28;20026;-75
2021/12/01 14:42:44;;;;;;;18.25;2.78;;;;;;;;;;4997878;28;20575;-74